|
公曆農曆對照

機場天氣預報 (TAF)

機場天氣預報 (TAF) 載述關於某個機場在預測期內預料會出現的氣象要素。

香港天文台在 18 年 05 月 26 日 13 時 00 分最新發出的香港國際機場天氣預報

TAF VHHH 260500Z 2606/2712 23010KT 9999 FEW025 TX35/2606Z TX35/2706Z TN29/2621Z TEMPO 2622/2702 4500 SHRA=

(下次更新時間:18年05月26日19時00分)

機場天氣預報電碼經解碼後:-

香港天文台發出 2018 年 05 月 26 日 06 協調世界時 至 2018 年 05 月 27 日 12 協調世界時 的機場天氣預報:
 

時間(協調世界時) 能見度 天氣狀況 雲層 雲層高度
2018 年 05 月 26 日 06 時 至 2018 年 05 月 27 日 12 時 西南風 (230 o) 10 海里/小時 10 公里以上 無重要天氣狀況
1-2
2500 呎
2018 年 05 月 26 日 22 時 至 2018 年 05 月 27 日 02 時 期間間中 西南風 (230 o) 10 海里/小時 4500 米 驟雨
1-2
2500 呎

時間(協調世界時) 氣溫
2018 年 05 月 26 日 06 時
最高35 oC
2018 年 05 月 27 日 06 時
最高35 oC
2018 年 05 月 26 日 21 時
最低29 oC

份: 雲層是以估計天空被雲遮蔽之總面積來評定。把天空分為八份,1 份即是八份之一的天空被雲遮蔽,2 份即是八份之二的天空被雲遮蔽,如此類推。
  0 份 = 天朗氣清,1-2 份 = 稀薄雲層,3-4 份 = 零散雲層,5-7 份 = 疏鬆雲層,8 份 = 天色陰暗。
若想進一步瞭解機場天氣預報(TAF)的編碼,請參看剖析TAF電碼的意義
若想進一步瞭解雲,請參看香港常見的雲
 
香港國際機場航空天氣報告資料 本港地區航空天氣預報
 
版權及聲明